Time;durP1;ratioP1;P1;durP2;ratioP2;P2;SDS_P1;SDS_P2;PMS_P1;PMS_P2;Temp;Humidity;BMP_temperature;BMP_pressure;BME280_temperature;BME280_humidity;BME280_pressure;Samples;Min_cycle;Max_cycle;Signal;HPM_P1;HPM_P2
2021/10/25 00:02:16;;;;;;;20.33;10.43;;;;;;;12.91;100.00;101758.75;5097441;28;20358;-56
2021/10/25 00:04:42;;;;;;;18.03;10.47;;;;;;;12.75;100.00;101759.78;5096745;28;20088;-55
2021/10/25 00:07:07;;;;;;;17.87;9.60;;;;;;;12.75;100.00;101759.78;5096627;28;20416;-57
2021/10/25 00:09:33;;;;;;;18.37;11.07;;;;;;;12.69;100.00;101760.53;5096597;28;20422;-55
2021/10/25 00:11:58;;;;;;;21.90;10.87;;;;;;;12.84;100.00;101751.63;5097114;28;20043;-54
2021/10/25 00:14:24;;;;;;;21.10;10.10;;;;;;;12.72;100.00;101754.81;5096767;28;20362;-55
2021/10/25 00:16:50;;;;;;;18.00;10.82;;;;;;;13.11;100.00;101762.66;5096987;28;20074;-54
2021/10/25 00:19:17;;;;;;;19.67;10.98;;;;;;;12.79;100.00;101754.84;5096043;28;20082;-56
2021/10/25 00:21:43;;;;;;;;;;;;;;;12.91;100.00;101763.25;5096910;28;20028;-57
2021/10/25 00:24:08;;;;;;;20.07;10.00;;;;;;;12.67;100.00;101762.56;5095292;28;19914;-55
2021/10/25 00:26:34;;;;;;;22.97;12.57;;;;;;;12.54;100.00;101755.16;5096663;28;20369;-58
2021/10/25 00:29:00;;;;;;;22.23;12.20;;;;;;;12.53;100.00;101760.72;5095727;28;20071;-53
2021/10/25 00:31:26;;;;;;;23.83;12.10;;;;;;;12.59;100.00;101751.94;5095222;28;20039;-53
2021/10/25 00:33:51;;;;;;;18.70;11.50;;;;;;;12.46;100.00;101748.06;5096519;28;20047;-52
2021/10/25 00:36:17;;;;;;;19.30;11.13;;;;;;;12.46;100.00;101749.91;5096566;28;20295;-54
2021/10/25 00:38:42;;;;;;;23.37;12.13;;;;;;;12.55;100.00;101754.16;5095095;28;20032;-53
2021/10/25 00:41:09;;;;;;;19.75;11.65;;;;;;;12.46;100.00;101750.75;5096270;28;20260;-58
2021/10/25 00:43:35;;;;;;;;;;;;;;;12.51;100.00;101760.09;5077817;28;20052;-57
2021/10/25 00:46:01;;;;;;;19.53;10.63;;;;;;;12.41;100.00;101741.59;5096123;28;20368;-56
2021/10/25 00:48:27;;;;;;;23.45;12.75;;;;;;;12.30;100.00;101740.19;5096103;28;20359;-57
2021/10/25 00:50:52;;;;;;;17.23;10.97;;;;;;;12.46;100.00;101745.38;5095971;28;20032;-54
2021/10/25 00:53:18;;;;;;;18.02;11.02;;;;;;;12.46;100.00;101749.91;5094989;28;20028;-56
2021/10/25 00:55:44;;;;;;;20.50;10.70;;;;;;;12.38;100.00;101736.59;5095482;28;20410;-57
2021/10/25 00:58:10;;;;;;;20.67;10.73;;;;;;;12.53;100.00;101744.63;5095774;28;20292;-57
2021/10/25 01:00:36;;;;;;;23.40;10.90;;;;;;;12.50;100.00;101750.38;5094533;28;20119;-56
2021/10/25 01:03:02;;;;;;;17.63;10.73;;;;;;;12.25;100.00;101742.63;5094677;28;20386;-56
2021/10/25 01:05:29;;;;;;;19.52;11.32;;;;;;;12.15;100.00;101757.09;5095160;28;20038;-53
2021/10/25 01:07:56;;;;;;;23.02;11.68;;;;;;;12.25;100.00;101750.66;5095406;28;20040;-52
2021/10/25 01:10:23;;;;;;;21.98;10.80;;;;;;;12.03;100.00;101754.03;5094545;28;20028;-53
2021/10/25 01:12:52;;;;;;;;;;;;;;;12.56;100.00;101750.44;5096198;28;20036;-53
2021/10/25 01:15:19;;;;;;;18.05;9.98;;;;;;;12.80;100.00;101740.44;5094407;28;19915;-56
2021/10/25 01:17:57;;;;;;;18.20;10.52;;;;;;;12.91;100.00;101744.47;5094556;28;20043;-57
2021/10/25 01:20:23;;;;;;;17.35;10.27;;;;;;;12.59;100.00;101744.72;5094630;28;20048;-55
2021/10/25 01:22:50;;;;;;;20.20;9.73;;;;;;;12.56;100.00;101744.25;5094718;28;20032;-56
2021/10/25 01:25:16;;;;;;;17.13;9.98;;;;;;;12.98;100.00;101742.72;5094166;28;20423;-56
2021/10/25 01:27:42;;;;;;;22.52;10.02;;;;;;;12.94;100.00;101740.59;5094522;28;20031;-53
2021/10/25 01:30:09;;;;;;;17.20;9.40;;;;;;;13.19;100.00;101743.75;5094224;28;20050;-53
2021/10/25 01:32:35;;;;;;;18.90;8.30;;;;;;;13.31;100.00;101741.41;5094945;28;20032;-57
2021/10/25 01:35:01;;;;;;;17.63;9.48;;;;;;;12.99;100.00;101739.00;5095119;28;20039;-56
2021/10/25 01:37:27;;;;;;;14.57;8.05;;;;;;;12.74;100.00;101742.03;5095226;28;20128;-53
2021/10/25 01:39:53;;;;;;;18.23;9.50;;;;;;;13.02;100.00;101729.72;5094025;28;20103;-54
2021/10/25 01:42:19;;;;;;;;;;;;;;;12.97;100.00;101730.31;5094026;28;20036;-51
2021/10/25 01:44:44;;;;;;;14.07;8.17;;;;;;;13.19;100.00;101727.66;5094415;28;19919;-53
2021/10/25 01:47:10;;;;;;;13.13;7.47;;;;;;;13.43;100.00;101726.44;5094629;28;20032;-52
2021/10/25 01:49:36;;;;;;;20.50;9.45;;;;;;;13.19;100.00;101725.78;5093600;28;20090;-52
2021/10/25 01:52:02;;;;;;;17.10;8.67;;;;;;;13.51;100.00;101728.19;5094596;28;20119;-58
2021/10/25 01:54:29;;;;;;;17.02;8.65;;;;;;;13.70;100.00;101715.91;5077302;28;20280;-56
2021/10/25 01:56:55;;;;;;;14.07;8.80;;;;;;;13.27;100.00;101719.44;5093798;28;20145;-56
2021/10/25 01:59:21;;;;;;;13.38;7.75;;;;;;;13.43;100.00;101717.56;5094071;28;20043;-53
2021/10/25 02:01:47;;;;;;;16.42;8.25;;;;;;;13.64;100.00;101713.19;5094163;28;20119;-58
2021/10/25 02:04:13;;;;;;;15.20;8.50;;;;;;;13.50;100.00;101713.06;5076762;28;20035;-56
2021/10/25 02:06:38;;;;;;;15.20;7.97;;;;;;;13.59;100.00;101711.91;5095547;28;20032;-57
2021/10/25 02:09:05;;;;;;;13.48;8.23;;;;;;;13.70;100.00;101707.84;5095063;28;20031;-56
2021/10/25 02:11:31;;;;;;;11.70;7.60;;;;;;;13.73;100.00;101707.50;5094218;28;20090;-51
2021/10/25 02:14:02;;;;;;;13.20;7.70;;;;;;;13.47;100.00;101710.78;5093345;28;20034;-55
2021/10/25 02:16:28;;;;;;;14.02;7.80;;;;;;;13.55;100.00;101693.69;5094731;28;20036;-55
2021/10/25 02:18:54;;;;;;;;;;;;;;;13.55;100.00;101704.44;5093803;28;20181;-59
2021/10/25 02:21:26;;;;;;;10.65;6.45;;;;;;;13.76;100.00;101706.25;5077773;28;19939;-56
2021/10/25 02:23:52;;;;;;;15.63;8.52;;;;;;;13.66;100.00;101701.22;5093795;28;20446;-57
2021/10/25 02:26:17;;;;;;;14.48;7.50;;;;;;;13.57;100.00;101692.47;5093344;28;20036;-56
2021/10/25 02:28:43;;;;;;;13.27;8.50;;;;;;;13.53;100.00;101685.00;5077179;28;20032;-58
2021/10/25 02:31:11;;;;;;;15.95;7.60;;;;;;;13.67;100.00;101686.75;5094152;28;20256;-50
2021/10/25 02:33:40;;;;;;;13.90;7.43;;;;;;;13.76;100.00;101685.59;5093526;28;20032;-57
2021/10/25 02:36:07;;;;;;;13.73;7.40;;;;;;;13.81;100.00;101687.66;5093281;28;20515;-54
2021/10/25 02:38:38;;;;;;;16.58;7.82;;;;;;;13.77;100.00;101678.34;5076670;28;20036;-55
2021/10/25 02:41:05;;;;;;;17.85;7.30;;;;;;;13.55;100.00;101673.00;5094229;28;20533;-53
2021/10/25 02:43:31;;;;;;;12.77;7.72;;;;;;;13.84;100.00;101676.56;5092731;28;20048;-56
2021/10/25 02:45:59;;;;;;;17.08;7.57;;;;;;;13.73;100.00;101671.69;5093115;28;20040;-55
2021/10/25 02:48:25;;;;;;;14.13;7.90;;;;;;;13.69;100.00;101668.56;5093928;28;20046;-55
2021/10/25 02:50:52;;;;;;;17.63;7.10;;;;;;;13.61;100.00;101664.19;5092714;28;20426;-53
2021/10/25 02:53:18;;;;;;;15.38;8.07;;;;;;;13.56;100.00;101663.91;5093863;28;20032;-52
2021/10/25 02:55:47;;;;;;;14.55;7.07;;;;;;;13.75;100.00;101662.44;5092967;28;20515;-56
2021/10/25 02:58:15;;;;;;;20.83;8.32;;;;;;;13.57;100.00;101670.97;5093678;28;20105;-52
2021/10/25 03:00:43;;;;;;;17.50;7.65;;;;;;;13.89;100.00;101665.19;5092658;28;20036;-57
2021/10/25 03:03:09;;;;;;;13.27;7.80;;;;;;;14.10;100.00;101663.44;5093489;28;20330;-53
2021/10/25 03:05:34;;;;;;;15.75;7.65;;;;;;;13.99;100.00;101668.38;5076329;28;20055;-55
2021/10/25 03:08:00;;;;;;;14.60;7.20;;;;;;;13.76;100.00;101663.25;5093889;28;20044;-55
2021/10/25 03:10:26;;;;;;;14.23;8.30;;;;;;;13.78;100.00;101661.19;5092452;28;20089;-56
2021/10/25 03:12:51;;;;;;;13.73;7.68;;;;;;;14.03;100.00;101663.41;5075668;28;20322;-53
2021/10/25 03:15:17;;;;;;;16.17;7.17;;;;;;;14.12;100.00;101667.59;5075548;28;20023;-55
2021/10/25 03:17:44;;;;;;;12.38;7.30;;;;;;;14.19;100.00;101663.09;5076481;28;20518;-53
2021/10/25 03:20:32;;;;;;;12.63;6.65;;;;;;;13.89;100.00;101657.13;5092231;28;20462;-53
2021/10/25 03:22:58;;;;;;;15.83;7.40;;;;;;;13.76;100.00;101657.88;5075765;28;20066;-53
2021/10/25 03:25:23;;;;;;;18.30;7.73;;;;;;;13.96;100.00;101671.44;5075459;28;20698;-53
2021/10/25 03:27:49;;;;;;;17.48;7.05;;;;;;;13.98;100.00;101663.16;5076414;28;20055;-56
2021/10/25 03:30:18;;;;;;;16.05;7.72;;;;;;;14.19;100.00;101665.78;5092276;28;20184;-56
2021/10/25 03:32:47;;;;;;;16.23;8.45;;;;;;;14.24;100.00;101664.34;5076398;28;20043;-55
2021/10/25 03:35:32;;;;;;;12.50;7.40;;;;;;;14.41;100.00;101660.28;5092931;28;20028;-52
2021/10/25 03:37:59;;;;;;;13.82;6.82;;;;;;;14.39;100.00;101662.34;5092028;28;20040;-56
2021/10/25 03:40:28;;;;;;;16.95;7.47;;;;;;;14.44;100.00;101665.25;5093020;28;20039;-59
2021/10/25 03:42:55;;;;;;;16.30;7.93;;;;;;;14.38;100.00;101649.06;5075097;28;20052;-54
2021/10/25 03:45:28;;;;;;;15.43;7.40;;;;;;;14.33;100.00;101660.47;5091609;28;20040;-57
2021/10/25 03:50:32;;;;;;;14.90;7.70;;;;;;;14.37;100.00;101653.66;5091879;28;20055;-54
2021/10/25 04:04:17;;;;;;;15.30;7.78;;;;;;;14.10;100.00;101648.16;5092038;28;20050;-57
2021/10/25 04:29:05;;;;;;;12.77;7.22;;;;;;;14.39;100.00;101645.34;5076593;28;20076;-54
2021/10/25 04:31:32;;;;;;;12.63;7.05;;;;;;;14.49;100.00;101656.59;5078953;28;20028;-53
2021/10/25 04:33:59;;;;;;;18.23;7.72;;;;;;;14.66;100.00;101654.34;5096129;28;20032;-56
2021/10/25 04:36:45;;;;;;;12.85;6.55;;;;;;;14.24;100.00;101656.25;5081895;28;20036;-53
2021/10/25 04:39:28;;;;;;;13.30;7.35;;;;;;;14.58;100.00;101652.69;5080853;28;20131;-54
2021/10/25 04:41:59;;;;;;;14.57;7.35;;;;;;;14.49;100.00;101645.81;5079232;28;20039;-56
2021/10/25 04:44:26;;;;;;;13.35;7.07;;;;;;;14.41;100.00;101638.75;5096859;28;20040;-58
2021/10/25 04:46:52;;;;;;;14.75;7.45;;;;;;;14.36;100.00;101646.59;5095793;28;20050;-59
2021/10/25 04:49:18;;;;;;;16.08;8.02;;;;;;;14.34;100.00;101651.38;5061690;28;20067;-56
2021/10/25 04:52:06;;;;;;;13.63;7.57;;;;;;;14.76;100.00;101652.16;5095809;28;20052;-57
2021/10/25 04:54:33;;;;;;;12.93;6.97;;;;;;;14.67;100.00;101647.94;5078256;28;20059;-56
2021/10/25 04:56:59;;;;;;;14.77;6.78;;;;;;;14.38;100.00;101644.53;5095235;28;20067;-55
2021/10/25 04:59:25;;;;;;;16.65;7.50;;;;;;;14.51;100.00;101645.59;5095991;28;20514;-57
2021/10/25 05:01:51;;;;;;;15.07;7.25;;;;;;;14.54;100.00;101635.28;5094950;28;20028;-58
2021/10/25 05:04:17;;;;;;;11.98;6.45;;;;;;;14.77;100.00;101634.13;5094661;28;20036;-52
2021/10/25 05:06:43;;;;;;;17.98;6.93;;;;;;;14.47;100.00;101637.94;5094942;28;20462;-56
2021/10/25 05:09:08;;;;;;;13.43;6.55;;;;;;;14.89;100.00;101632.50;5078419;28;20036;-55
2021/10/25 05:11:34;;;;;;;13.80;7.18;;;;;;;14.57;100.00;101642.13;5094651;28;20051;-58
2021/10/25 05:14:00;;;;;;;13.98;7.03;;;;;;;14.62;100.00;101635.09;5094790;28;20180;-53
2021/10/25 05:16:26;;;;;;;;;;;;;;;14.91;100.00;101633.13;5054201;28;20044;-57
2021/10/25 05:19:04;;;;;;;15.10;6.97;;;;;;;14.97;100.00;101626.06;5053810;28;19955;-54
2021/10/25 05:21:31;;;;;;;15.98;6.65;;;;;;;14.69;100.00;101629.72;5053065;28;20041;-56
2021/10/25 05:23:56;;;;;;;15.38;6.68;;;;;;;14.28;100.00;101634.16;5053250;28;20029;-53
2021/10/25 05:26:22;;;;;;;12.70;6.80;;;;;;;14.27;100.00;101637.88;5053455;28;20457;-59
2021/10/25 05:28:48;;;;;;;12.48;6.53;;;;;;;14.79;100.00;101623.97;5053572;28;20045;-55
2021/10/25 05:31:14;;;;;;;15.35;8.27;;;;;;;14.59;100.00;101618.53;5035762;28;20037;-55
2021/10/25 05:33:42;;;;;;;12.93;7.45;;;;;;;14.64;100.00;101621.44;5052745;28;20584;-50
2021/10/25 05:36:09;;;;;;;13.17;7.13;;;;;;;14.74;100.00;101621.06;5052517;28;20057;-54
2021/10/25 05:38:36;;;;;;;15.60;7.93;;;;;;;14.95;100.00;101635.41;5036008;28;20482;-56
2021/10/25 05:41:04;;;;;;;17.92;7.65;;;;;;;14.76;100.00;101627.94;5053129;28;20075;-58
2021/10/25 05:43:30;;;;;;;15.02;8.30;;;;;;;14.92;100.00;101620.47;5052332;28;20056;-57
2021/10/25 05:45:56;;;;;;;15.18;8.02;;;;;;;14.76;100.00;101613.63;5052723;28;20123;-56
2021/10/25 05:48:23;;;;;;;16.57;7.10;;;;;;;14.42;100.00;101613.50;5087455;28;20047;-53
2021/10/25 05:50:48;;;;;;;15.55;7.03;;;;;;;14.82;100.00;101606.59;5094109;28;20063;-51
2021/10/25 05:53:15;;;;;;;17.45;7.30;;;;;;;14.59;100.00;101602.38;5076922;28;20116;-54
2021/10/25 05:55:42;;;;;;;;;;;;;;;14.55;100.00;101599.25;5094766;28;20036;-55
2021/10/25 05:58:20;;;;;;;13.55;6.70;;;;;;;14.85;100.00;101606.19;5093411;28;19920;-57
2021/10/25 06:00:58;;;;;;;13.77;5.90;;;;;;;14.60;100.00;101610.22;5093360;28;20040;-57
2021/10/25 06:03:45;;;;;;;13.60;6.93;;;;;;;14.94;100.00;101607.63;5094556;28;20066;-57
2021/10/25 06:06:11;;;;;;;13.63;6.55;;;;;;;14.82;100.00;101606.59;5076096;28;20031;-57
2021/10/25 06:08:39;;;;;;;18.70;7.22;;;;;;;15.09;100.00;101596.66;5093252;28;20070;-54
2021/10/25 06:11:09;;;;;;;12.73;6.45;;;;;;;14.80;100.00;101595.19;5094313;28;20059;-55
2021/10/25 06:13:40;;;;;;;19.33;7.72;;;;;;;14.77;100.00;101602.66;5094464;28;20040;-57
2021/10/25 06:16:18;;;;;;;18.85;6.65;;;;;;;14.60;100.00;101604.03;5094191;28;20055;-54
2021/10/25 06:18:50;;;;;;;19.25;7.18;;;;;;;14.63;100.00;101604.44;5093080;28;20458;-56
2021/10/25 06:21:16;;;;;;;19.45;6.97;;;;;;;14.77;100.00;101607.19;5075772;28;20032;-55
2021/10/25 06:23:42;;;;;;;14.10;6.80;;;;;;;15.08;100.00;101604.94;5075948;28;20084;-57
2021/10/25 06:26:17;;;;;;;15.43;6.85;;;;;;;14.89;100.00;101615.50;5093371;28;20466;-57
2021/10/25 06:28:44;;;;;;;14.95;6.10;;;;;;;14.87;100.00;101617.56;5076424;28;20032;-56
2021/10/25 06:31:10;;;;;;;11.47;6.47;;;;;;;14.92;100.00;101612.41;5094216;28;20369;-56
2021/10/25 06:34:02;;;;;;;12.10;7.32;;;;;;;15.14;100.00;101622.97;5093689;28;20052;-57
2021/10/25 06:36:30;;;;;;;13.02;6.35;;;;;;;14.76;100.00;101614.47;5093640;28;20051;-55
2021/10/25 06:39:13;;;;;;;15.23;6.72;;;;;;;14.81;100.00;101621.91;5093939;28;20464;-56
2021/10/25 06:41:45;;;;;;;15.82;6.50;;;;;;;14.86;100.00;101615.91;5092720;28;20043;-56
2021/10/25 06:44:18;;;;;;;12.85;6.63;;;;;;;14.93;100.00;101614.06;5092143;28;20127;-57
2021/10/25 06:46:44;;;;;;;19.02;6.38;;;;;;;15.01;100.00;101624.66;5092695;28;20131;-56
2021/10/25 06:49:10;;;;;;;12.18;6.53;;;;;;;15.40;100.00;101621.31;5092597;28;20039;-56
2021/10/25 06:51:37;;;;;;;10.98;5.78;;;;;;;14.85;100.00;101625.84;5092170;28;20039;-56
2021/10/25 06:54:03;;;;;;;11.15;6.50;;;;;;;15.15;100.00;101627.31;5075679;28;20134;-55
2021/10/25 06:56:30;;;;;;;15.20;7.70;;;;;;;15.03;100.00;101627.97;5091860;28;20024;-55
2021/10/25 06:58:56;;;;;;;;;;;;;;;14.87;100.00;101628.34;5093046;28;20288;-55
2021/10/25 07:01:23;;;;;;;13.53;7.33;;;;;;;14.82;100.00;101622.75;5092463;28;19912;-56
2021/10/25 07:03:49;;;;;;;17.73;7.22;;;;;;;15.09;100.00;101628.97;5092223;28;20047;-56
2021/10/25 07:06:17;;;;;;;17.33;7.95;;;;;;;14.94;100.00;101626.47;5093665;28;20119;-56
2021/10/25 07:08:45;;;;;;;16.80;8.68;;;;;;;14.53;100.00;101630.09;5092863;28;20101;-58
2021/10/25 07:11:13;;;;;;;13.25;8.27;;;;;;;14.83;100.00;101636.00;5092050;28;20034;-58
2021/10/25 07:13:45;;;;;;;13.55;7.97;;;;;;;14.88;100.00;101636.22;5091736;28;20040;-55
2021/10/25 07:16:18;;;;;;;19.52;9.70;;;;;;;14.98;100.00;101638.50;5092696;28;20362;-57
2021/10/25 08:11:17;;;;;;;11.13;6.77;;;;;;;15.94;100.00;101662.53;5095526;28;20741;-60
2021/10/25 08:14:00;;;;;;;12.77;7.20;;;;;;;16.01;100.00;101665.22;5096018;28;20757;-54
2021/10/25 08:16:42;;;;;;;17.47;7.23;;;;;;;15.69;100.00;101659.66;5095849;28;20454;-60
2021/10/25 08:19:28;;;;;;;14.20;5.93;;;;;;;15.76;100.00;101655.09;5096048;28;20364;-58
2021/10/25 08:21:57;;;;;;;16.87;7.17;;;;;;;15.66;100.00;101657.34;5095812;28;20269;-57
2021/10/25 08:24:31;;;;;;;12.13;6.70;;;;;;;16.16;100.00;101657.72;5095579;28;20742;-56
2021/10/25 08:27:18;;;;;;;11.77;5.60;;;;;;;16.05;100.00;101652.97;5095526;28;20248;-57
2021/10/25 08:29:46;;;;;;;11.13;6.10;;;;;;;15.97;100.00;101655.91;5096943;28;20281;-56
2021/10/25 08:32:43;;;;;;;10.37;6.33;;;;;;;16.20;100.00;101652.69;5095108;28;20256;-55
2021/10/25 08:40:46;;;;;;;10.20;6.00;;;;;;;16.41;100.00;101650.75;5081695;28;20281;-55
2021/10/25 08:43:13;;;;;;;15.18;7.05;;;;;;;16.04;100.00;101646.75;5095118;28;20277;-58
2021/10/25 08:45:45;;;;;;;13.10;6.20;;;;;;;16.28;100.00;101652.47;5078311;28;20130;-57
2021/10/25 08:48:14;;;;;;;16.77;7.77;;;;;;;16.31;100.00;101645.81;5095464;28;20304;-55
2021/10/25 08:50:40;;;;;;;21.63;7.20;;;;;;;16.19;100.00;101651.88;5095850;28;20273;-55
2021/10/25 08:53:11;;;;;;;12.87;6.70;;;;;;;16.24;100.00;101658.50;5094142;28;20040;-55
2021/10/25 08:55:52;;;;;;;9.97;6.20;;;;;;;16.12;100.00;101652.94;5095110;28;20290;-55
2021/10/25 08:58:19;;;;;;;13.60;6.80;;;;;;;16.05;100.00;101650.25;5062217;28;20289;-57
2021/10/25 09:00:50;;;;;;;16.20;9.33;;;;;;;15.94;100.00;101645.53;5095195;28;20602;-56
2021/10/25 09:03:42;;;;;;;21.30;9.57;;;;;;;15.98;100.00;101660.25;5092443;28;20738;-55
2021/10/25 09:06:14;;;;;;;22.43;11.27;;;;;;;16.11;100.00;101657.50;5077837;28;20295;-57
2021/10/25 09:08:41;;;;;;;25.00;12.43;;;;;;;16.10;100.00;101653.16;5094482;28;20269;-55
2021/10/25 09:11:08;;;;;;;18.40;10.30;;;;;;;15.88;100.00;101649.88;5077667;28;20273;-55
2021/10/25 09:13:45;;;;;;;16.77;10.10;;;;;;;16.22;100.00;101647.91;5094961;28;20342;-54
2021/10/25 09:16:14;;;;;;;27.70;11.38;;;;;;;16.19;100.00;101659.97;5094246;28;20375;-57
2021/10/25 09:19:02;;;;;;;25.13;9.73;;;;;;;16.07;100.00;101650.88;5094863;28;20032;-56
2021/10/25 09:21:33;;;;;;;22.95;9.18;;;;;;;15.89;100.00;101649.66;5094993;28;20640;-58
2021/10/25 09:24:02;;;;;;;19.13;9.37;;;;;;;16.01;100.00;101644.47;5094645;28;20515;-57
2021/10/25 09:26:31;;;;;;;26.55;11.23;;;;;;;16.24;100.00;101650.41;5094063;28;20261;-57
2021/10/25 09:29:02;;;;;;;23.83;10.93;;;;;;;16.12;100.00;101639.47;5094132;28;20461;-56
2021/10/25 09:31:31;;;;;;;22.40;8.80;;;;;;;16.11;100.00;101635.91;5094571;28;20378;-58
2021/10/25 09:34:03;;;;;;;16.57;7.70;;;;;;;16.37;100.00;101630.63;5094718;28;20291;-55
2021/10/25 09:37:11;;;;;;;13.37;6.50;;;;;;;15.91;100.00;101638.69;5071472;28;20688;-57
2021/10/25 09:39:49;;;;;;;15.73;7.07;;;;;;;16.30;100.00;101639.59;5078359;28;20291;-56
2021/10/25 09:42:47;;;;;;;16.60;7.43;;;;;;;16.28;100.00;101640.84;5093639;28;20336;-54
2021/10/25 09:50:53;;;;;;;16.83;10.30;;;;;;;16.01;100.00;101638.25;5093841;28;20272;-58
2021/10/25 09:53:54;;;;;;;17.47;10.47;;;;;;;16.25;100.00;101638.56;5094682;28;20318;-56
2021/10/25 09:56:30;;;;;;;16.80;9.67;;;;;;;16.38;100.00;101632.28;5080404;28;20323;-58
2021/10/25 09:59:47;;;;;;;13.53;8.47;;;;;;;16.53;100.00;101637.41;5082988;28;20288;-56
2021/10/25 10:02:16;;;;;;;17.70;8.83;;;;;;;16.73;100.00;101638.13;5077330;28;20727;-57
2021/10/25 10:04:45;;;;;;;18.53;7.87;;;;;;;16.66;100.00;101633.81;5076540;28;20271;-57
2021/10/25 10:07:19;;;;;;;16.20;7.13;;;;;;;16.78;100.00;101632.88;5093404;28;20741;-57
2021/10/25 10:09:51;;;;;;;12.70;6.73;;;;;;;17.00;100.00;101626.34;5077236;28;20776;-56
2021/10/25 10:12:20;;;;;;;12.65;7.70;;;;;;;17.04;100.00;101636.47;5075849;28;20387;-59
2021/10/25 10:15:05;;;;;;;16.67;8.73;;;;;;;17.03;100.00;101637.53;5093038;28;20088;-56
2021/10/25 10:17:49;;;;;;;18.43;8.13;;;;;;;17.24;100.00;101627.38;5093441;28;20264;-57
2021/10/25 10:20:21;;;;;;;17.37;7.43;;;;;;;17.25;100.00;101631.75;5094672;28;20605;-59
2021/10/25 10:22:55;;;;;;;12.40;6.78;;;;;;;17.73;100.00;101626.72;5093650;28;20285;-54
2021/10/25 10:25:28;;;;;;;12.30;7.03;;;;;;;17.62;100.00;101618.31;5093406;28;20044;-57
2021/10/25 10:28:06;;;;;;;16.27;7.73;;;;;;;17.43;100.00;101611.22;5093373;28;20307;-57
2021/10/25 10:30:55;;;;;;;16.90;8.13;;;;;;;17.38;100.00;101627.28;5093024;28;20341;-57
2021/10/25 10:33:39;;;;;;;13.57;7.50;;;;;;;17.88;100.00;101629.09;5092728;28;20751;-59
2021/10/25 10:36:31;;;;;;;15.80;8.10;;;;;;;17.83;100.00;101635.16;5092575;28;20044;-58
2021/10/25 10:39:16;;;;;;;13.37;7.77;;;;;;;17.86;100.00;101629.28;5093114;28;20746;-59
2021/10/25 10:42:05;;;;;;;21.27;8.70;;;;;;;17.72;100.00;101633.19;5072230;28;20276;-57
2021/10/25 10:45:00;;;;;;;14.00;7.33;;;;;;;18.61;100.00;101640.06;5082565;28;20127;-59
2021/10/25 10:47:53;;;;;;;12.00;7.13;;;;;;;18.26;100.00;101632.63;5092859;28;20856;-58
2021/10/25 10:50:38;;;;;;;13.00;6.23;;;;;;;18.46;100.00;101632.34;5093162;28;20269;-58
2021/10/25 10:53:10;;;;;;;12.07;5.93;;;;;;;18.28;100.00;101636.75;5093711;28;20268;-57
2021/10/25 10:55:39;;;;;;;17.83;6.03;;;;;;;18.29;100.00;101630.28;5092986;28;20669;-54
2021/10/25 11:00:46;;;;;;;14.95;5.50;;;;;;;18.88;100.00;101626.13;5092179;28;20812;-58
2021/10/25 11:03:28;;;;;;;11.40;5.83;;;;;;;18.75;100.00;101625.28;5092395;28;20039;-55
2021/10/25 11:06:04;;;;;;;11.27;5.97;;;;;;;18.86;100.00;101633.66;5092299;28;20276;-55
2021/10/25 11:08:31;;;;;;;14.63;6.20;;;;;;;19.01;100.00;101631.38;5089976;28;20749;-59
2021/10/25 11:11:06;;;;;;;19.90;6.13;;;;;;;19.54;100.00;101636.13;5093112;28;20257;-57
2021/10/25 11:13:59;;;;;;;11.90;6.83;;;;;;;19.64;100.00;101620.06;5076026;28;20325;-57
2021/10/25 11:18:59;;;;;;;13.40;7.00;;;;;;;21.31;99.53;101630.28;5093530;28;20326;-58
2021/10/25 11:21:29;;;;;;;12.73;6.57;;;;;;;21.79;93.71;101630.72;5092901;28;20028;-56
2021/10/25 11:24:02;;;;;;;15.33;6.27;;;;;;;20.77;100.00;101629.66;5092776;28;20036;-57
2021/10/25 11:26:40;;;;;;;16.50;6.77;;;;;;;19.84;100.00;101632.44;5092749;28;20318;-58
2021/10/25 11:29:15;;;;;;;12.33;6.20;;;;;;;20.25;100.00;101632.47;5075329;28;20057;-58
2021/10/25 11:31:47;;;;;;;16.67;6.83;;;;;;;19.65;100.00;101627.16;5093012;28;20070;-57
2021/10/25 11:34:14;;;;;;;16.30;6.80;;;;;;;19.23;100.00;101635.41;5092563;28;20039;-59
2021/10/25 11:36:56;;;;;;;13.00;7.33;;;;;;;19.17;100.00;101637.19;5093094;28;20677;-59
2021/10/25 11:39:42;;;;;;;20.57;7.40;;;;;;;19.19;100.00;101624.22;5093576;28;20289;-58
2021/10/25 11:42:09;;;;;;;12.63;6.10;;;;;;;18.85;100.00;101627.44;5091999;28;20260;-56
2021/10/25 11:44:36;;;;;;;10.93;5.93;;;;;;;18.61;100.00;101618.38;5092890;28;20277;-60
2021/10/25 11:47:01;;;;;;;10.65;6.75;;;;;;;18.76;100.00;101618.81;5092988;28;20276;-59
2021/10/25 11:49:27;;;;;;;10.48;5.75;;;;;;;18.78;100.00;101615.84;5093131;28;20044;-57
2021/10/25 11:51:55;;;;;;;11.00;6.03;;;;;;;19.12;100.00;101610.78;5092925;28;20039;-57
2021/10/25 11:54:21;;;;;;;11.60;5.70;;;;;;;19.24;100.00;101602.63;5091928;28;20035;-58
2021/10/25 11:56:52;;;;;;;12.02;6.90;;;;;;;19.34;100.00;101600.16;5091442;28;20284;-56
2021/10/25 11:59:18;;;;;;;12.13;6.60;;;;;;;19.80;100.00;101601.41;5092796;28;20044;-59
2021/10/25 12:01:45;;;;;;;13.40;6.27;;;;;;;19.20;100.00;101602.28;5093089;28;20583;-57
2021/10/25 12:04:13;;;;;;;12.80;7.33;;;;;;;19.09;100.00;101607.69;5091428;28;20285;-57
2021/10/25 12:06:38;;;;;;;11.17;6.07;;;;;;;18.96;100.00;101608.69;5091892;28;20288;-58
2021/10/25 12:09:08;;;;;;;13.82;6.45;;;;;;;18.77;100.00;101601.47;5092528;28;20326;-58
2021/10/25 12:11:51;;;;;;;12.67;7.07;;;;;;;19.49;100.00;101601.56;5092446;28;20028;-58
2021/10/25 12:14:19;;;;;;;11.20;6.57;;;;;;;19.85;100.00;101605.06;5093154;28;20326;-58
2021/10/25 12:16:49;;;;;;;13.17;6.27;;;;;;;19.77;100.00;101597.28;5093221;28;20602;-55
2021/10/25 12:19:17;;;;;;;13.93;6.77;;;;;;;20.06;100.00;101592.75;5092611;28;20288;-58
2021/10/25 12:21:43;;;;;;;12.57;6.40;;;;;;;20.61;100.00;101590.50;5091339;28;20289;-60
2021/10/25 12:24:12;;;;;;;17.10;7.47;;;;;;;20.20;100.00;101592.50;5092300;28;20240;-56
2021/10/25 12:26:42;;;;;;;16.37;6.60;;;;;;;21.82;100.00;101589.38;5091269;28;20074;-57
2021/10/25 12:29:18;;;;;;;12.47;7.23;;;;;;;24.39;73.28;101593.44;5092773;28;20089;-58
2021/10/25 12:31:45;;;;;;;13.25;7.55;;;;;;;25.18;65.69;101601.38;5092550;28;20032;-58
2021/10/25 12:34:11;;;;;;;18.13;8.27;;;;;;;26.81;55.74;101597.63;5091445;28;20035;-58
2021/10/25 12:36:40;;;;;;;12.05;5.90;;;;;;;26.32;55.49;101598.25;5091099;28;20040;-59
2021/10/25 12:39:08;;;;;;;10.17;5.30;;;;;;;26.21;54.48;101610.41;5092780;28;20032;-59
2021/10/25 12:41:51;;;;;;;13.10;5.73;;;;;;;26.26;54.79;101591.16;5095594;28;20039;-59
2021/10/25 12:44:29;;;;;;;14.57;5.57;;;;;;;26.25;53.48;101605.97;5095944;28;20466;-58
2021/10/25 12:47:16;;;;;;;11.10;6.03;;;;;;;25.62;55.36;101602.69;5095934;28;20547;-58
2021/10/25 12:49:51;;;;;;;9.70;6.10;;;;;;;26.82;52.08;101588.28;5094906;28;20473;-59
2021/10/25 12:52:18;;;;;;;9.37;5.73;;;;;;;27.56;48.90;101596.34;5095638;28;20032;-58
2021/10/25 12:54:44;;;;;;;14.80;5.80;;;;;;;27.44;48.98;101584.91;5095279;28;20035;-57
2021/10/25 12:57:22;;;;;;;12.80;5.43;;;;;;;26.55;50.94;101586.88;5095982;28;20047;-58
2021/10/25 12:59:59;;;;;;;12.13;5.13;;;;;;;25.17;56.38;101591.53;5094924;28;20047;-58
2021/10/25 13:02:27;;;;;;;12.17;6.13;;;;;;;24.98;58.95;101579.53;5095923;28;20477;-59
2021/10/25 13:05:08;;;;;;;14.33;6.17;;;;;;;24.34;63.98;101577.03;5095659;28;20454;-58
2021/10/25 13:07:34;;;;;;;14.70;6.20;;;;;;;24.83;61.20;101583.09;5095407;28;20040;-59
2021/10/25 13:09:59;;;;;;;;;;;;;;;25.59;58.54;101588.72;5094487;28;20036;-58
2021/10/25 13:12:25;;;;;;;10.27;5.60;;;;;;;25.12;59.22;101588.81;5095759;28;19904;-58
2021/10/25 13:14:51;;;;;;;15.18;6.55;;;;;;;25.30;58.45;101586.59;5094378;28;20032;-58